createdAt,value
2018-09-08T00:01:48.696Z,13.50
2018-09-08T00:05:57.055Z,13.50
2018-09-08T00:10:06.803Z,13.50
2018-09-08T00:14:15.203Z,13.50
2018-09-08T00:18:28.990Z,13.40
2018-09-08T00:22:42.807Z,13.30
2018-09-08T00:26:50.401Z,13.30
2018-09-08T00:30:59.446Z,13.40
2018-09-08T00:35:07.813Z,13.30
2018-09-08T00:39:16.220Z,13.30
2018-09-08T00:43:24.567Z,13.30
2018-09-08T00:47:32.880Z,13.30
2018-09-08T00:51:41.189Z,13.30
2018-09-08T00:55:49.552Z,13.20
2018-09-08T00:59:57.935Z,13.20
2018-09-08T01:04:06.341Z,13.20
2018-09-08T01:08:14.722Z,13.20
2018-09-08T01:12:23.131Z,13.20
2018-09-08T01:16:31.527Z,13.30
2018-09-08T01:20:39.857Z,13.30
2018-09-08T01:24:48.216Z,13.30
2018-09-08T01:28:56.606Z,13.30
2018-09-08T01:33:05.124Z,13.30
2018-09-08T01:37:13.524Z,13.20
2018-09-08T01:41:21.843Z,13.10
2018-09-08T01:45:30.158Z,13.10
2018-09-08T01:49:38.585Z,13.10
2018-09-08T01:53:46.912Z,13.00
2018-09-08T01:57:55.256Z,12.90
2018-09-08T02:02:03.730Z,13.00
2018-09-08T02:06:12.106Z,13.10
2018-09-08T02:10:20.484Z,13.00
2018-09-08T02:14:28.934Z,13.00
2018-09-08T02:18:37.312Z,13.00
2018-09-08T02:22:45.749Z,12.90
2018-09-08T02:26:54.094Z,12.90
2018-09-08T02:31:02.647Z,12.90
2018-09-08T02:35:10.993Z,12.90
2018-09-08T02:39:19.338Z,12.90
2018-09-08T02:43:27.988Z,12.90
2018-09-08T02:47:36.417Z,12.90
2018-09-08T02:51:43.731Z,12.90
2018-09-08T02:55:51.101Z,12.90
2018-09-08T02:59:58.420Z,12.90
2018-09-08T03:04:05.719Z,12.80
2018-09-08T03:08:13.034Z,12.80
2018-09-08T03:12:20.334Z,12.80
2018-09-08T03:16:27.674Z,12.70
2018-09-08T03:20:35.006Z,12.80
2018-09-08T03:24:42.335Z,12.80
2018-09-08T03:28:49.681Z,12.70
2018-09-08T03:32:56.983Z,12.60
2018-09-08T03:37:04.464Z,12.60
2018-09-08T03:41:11.788Z,12.50
2018-09-08T03:45:19.208Z,12.60
2018-09-08T03:49:26.541Z,12.40
2018-09-08T03:53:33.880Z,12.60
2018-09-08T03:57:41.184Z,12.60
2018-09-08T04:01:48.552Z,12.50
2018-09-08T04:05:56.873Z,12.50
2018-09-08T04:10:05.256Z,12.40
2018-09-08T04:14:13.624Z,12.40
2018-09-08T04:18:21.993Z,12.40
2018-09-08T04:22:34.002Z,12.40
2018-09-08T04:26:42.413Z,12.50
2018-09-08T04:30:50.829Z,12.40
2018-09-08T04:34:59.257Z,12.40
2018-09-08T04:39:09.371Z,12.30
2018-09-08T04:43:17.714Z,12.40
2018-09-08T04:47:26.150Z,12.50
2018-09-08T04:51:34.733Z,12.40
2018-09-08T04:55:43.101Z,12.50
2018-09-08T04:59:51.938Z,12.40
2018-09-08T05:04:00.342Z,12.60
2018-09-08T05:08:08.725Z,12.60
2018-09-08T05:12:17.147Z,12.50
2018-09-08T05:16:25.499Z,12.50
2018-09-08T05:20:33.914Z,12.50
2018-09-08T05:24:42.367Z,12.40
2018-09-08T05:28:50.945Z,12.50
2018-09-08T05:32:59.345Z,12.60
2018-09-08T05:37:07.804Z,12.70
2018-09-08T05:41:16.335Z,12.70
2018-09-08T05:45:24.727Z,12.60
2018-09-08T05:49:33.096Z,12.60
2018-09-08T05:53:41.476Z,12.50
2018-09-08T05:57:49.898Z,12.50
2018-09-08T06:01:58.808Z,12.60
2018-09-08T06:06:07.201Z,12.80
2018-09-08T06:10:15.768Z,12.70
2018-09-08T06:14:24.180Z,12.60
2018-09-08T06:18:32.617Z,12.70
2018-09-08T06:22:41.000Z,12.70
2018-09-08T06:26:49.386Z,12.80
2018-09-08T06:30:58.174Z,12.80
2018-09-08T06:35:06.599Z,13.00
2018-09-08T06:39:15.683Z,13.00
2018-09-08T06:43:24.139Z,13.00
2018-09-08T06:47:32.479Z,13.20
2018-09-08T06:51:40.850Z,13.20
2018-09-08T06:55:49.161Z,13.30
2018-09-08T06:59:57.513Z,13.30
2018-09-08T07:04:06.041Z,13.20
2018-09-08T07:08:14.584Z,13.40
2018-09-08T07:12:22.998Z,13.50
2018-09-08T07:16:31.573Z,13.60
2018-09-08T07:20:40.135Z,13.60
2018-09-08T07:24:48.773Z,13.70
2018-09-08T07:28:57.242Z,13.90
2018-09-08T07:33:05.814Z,14.00
2018-09-08T07:37:14.251Z,14.10
2018-09-08T07:41:23.122Z,14.20
2018-09-08T07:45:31.622Z,14.40
2018-09-08T07:49:40.193Z,14.50
2018-09-08T07:53:48.967Z,14.60
2018-09-08T07:57:57.502Z,14.90
2018-09-08T08:02:05.903Z,14.90
2018-09-08T08:06:14.275Z,15.00
2018-09-08T08:10:22.634Z,15.30
2018-09-08T08:14:31.079Z,15.40
2018-09-08T08:18:39.444Z,15.40
2018-09-08T08:22:47.827Z,15.50
2018-09-08T08:26:56.243Z,15.60
2018-09-08T08:31:04.725Z,15.80
2018-09-08T08:35:13.081Z,15.90
2018-09-08T08:39:21.455Z,16.00
2018-09-08T08:43:29.791Z,16.20
2018-09-08T08:47:38.147Z,16.30
2018-09-08T08:51:57.767Z,16.40
2018-09-08T08:56:06.101Z,16.50
2018-09-08T09:00:14.489Z,16.60
2018-09-08T09:04:22.817Z,16.70
2018-09-08T09:08:31.672Z,16.80
2018-09-08T09:12:39.531Z,16.90
2018-09-08T09:16:47.933Z,17.00
2018-09-08T09:21:07.756Z,16.90
2018-09-08T09:25:16.273Z,17.10
2018-09-08T09:29:24.812Z,17.20
2018-09-08T09:33:33.363Z,17.40
2018-09-08T09:37:43.060Z,17.50
2018-09-08T09:41:51.471Z,17.50
2018-09-08T09:45:59.812Z,17.80
2018-09-08T09:50:09.482Z,18.00
2018-09-08T09:54:17.823Z,18.10
2018-09-08T09:58:26.233Z,18.40
2018-09-08T10:02:45.337Z,18.60
2018-09-08T10:06:54.294Z,18.70
2018-09-08T10:11:02.814Z,18.80
2018-09-08T10:15:11.957Z,18.60
2018-09-08T10:19:20.369Z,18.60
2018-09-08T10:23:28.821Z,18.80
2018-09-08T10:27:37.153Z,19.00
2018-09-08T10:31:45.982Z,19.30
2018-09-08T10:35:54.167Z,19.60
2018-09-08T10:40:02.538Z,19.70
2018-09-08T10:44:10.915Z,19.80
2018-09-08T10:48:19.391Z,19.60
2018-09-08T10:52:33.593Z,19.30
2018-09-08T10:56:41.956Z,19.00
2018-09-08T11:00:50.370Z,18.90
2018-09-08T11:04:58.868Z,18.70
2018-09-08T11:09:07.289Z,18.70
2018-09-08T11:13:15.734Z,19.00
2018-09-08T11:17:24.330Z,19.40
2018-09-08T11:21:32.691Z,19.30
2018-09-08T11:25:41.037Z,19.40
2018-09-08T11:29:49.457Z,19.80
2018-09-08T11:33:57.834Z,20.10
2018-09-08T11:38:06.461Z,19.90
2018-09-08T11:42:14.776Z,19.80
2018-09-08T11:46:23.167Z,19.70
2018-09-08T11:50:31.515Z,19.70
2018-09-08T11:54:40.013Z,19.50
2018-09-08T11:58:48.367Z,19.40
2018-09-08T12:02:56.812Z,19.70
2018-09-08T12:07:05.302Z,20.10
2018-09-08T12:11:13.651Z,19.90
2018-09-08T12:15:22.001Z,19.50
2018-09-08T12:19:30.380Z,19.60
2018-09-08T12:23:38.726Z,19.70
2018-09-08T12:27:47.111Z,19.50
2018-09-08T12:31:55.437Z,19.90
2018-09-08T12:36:03.833Z,20.30
2018-09-08T12:40:12.214Z,20.20
2018-09-08T12:44:20.561Z,20.20
2018-09-08T12:48:28.894Z,20.20
2018-09-08T12:52:37.245Z,20.30
2018-09-08T12:56:45.667Z,20.10
2018-09-08T13:00:54.022Z,20.10
2018-09-08T13:05:02.416Z,20.20
2018-09-08T13:09:10.837Z,20.50
2018-09-08T13:13:19.261Z,20.60
2018-09-08T13:17:27.640Z,20.40
2018-09-08T13:21:35.984Z,20.40
2018-09-08T13:25:44.378Z,20.80
2018-09-08T13:29:52.754Z,20.80
2018-09-08T13:34:01.113Z,20.50
2018-09-08T13:38:09.472Z,20.30
2018-09-08T13:42:17.887Z,20.40
2018-09-08T13:46:26.335Z,20.40
2018-09-08T13:50:34.743Z,20.40
2018-09-08T13:54:43.144Z,20.30
2018-09-08T13:58:51.503Z,20.20
2018-09-08T14:02:59.854Z,20.10
2018-09-08T14:07:08.238Z,20.10
2018-09-08T14:11:16.521Z,20.10
2018-09-08T14:15:24.952Z,20.20
2018-09-08T14:19:33.294Z,20.30
2018-09-08T14:23:41.674Z,20.40
2018-09-08T14:27:50.063Z,20.40
2018-09-08T14:31:58.367Z,20.60
2018-09-08T14:36:06.814Z,20.70
2018-09-08T14:40:15.120Z,20.60
2018-09-08T14:44:23.556Z,20.50
2018-09-08T14:48:31.911Z,20.40
2018-09-08T14:52:40.303Z,20.30
2018-09-08T14:56:48.689Z,20.20
2018-09-08T15:00:57.012Z,20.20
2018-09-08T15:05:05.568Z,20.10
2018-09-08T15:09:13.886Z,20.00
2018-09-08T15:13:22.237Z,20.10
2018-09-08T15:17:30.614Z,20.00
2018-09-08T15:21:39.034Z,20.00
2018-09-08T15:25:47.365Z,19.90
2018-09-08T15:29:55.731Z,19.90
2018-09-08T15:34:04.098Z,20.00
2018-09-08T15:38:12.479Z,20.10
2018-09-08T15:42:20.942Z,19.90
2018-09-08T15:46:29.241Z,19.90
2018-09-08T15:50:37.671Z,19.80
2018-09-08T15:54:46.044Z,19.70
2018-09-08T15:58:54.522Z,19.70
2018-09-08T16:03:02.910Z,19.60
2018-09-08T16:07:11.282Z,19.60
2018-09-08T16:11:19.696Z,19.60
2018-09-08T16:15:28.107Z,19.50
2018-09-08T16:19:36.462Z,19.40
2018-09-08T16:23:44.799Z,19.60
2018-09-08T16:27:53.146Z,19.50
2018-09-08T16:32:01.476Z,19.40
2018-09-08T16:36:09.850Z,19.40
2018-09-08T16:40:18.206Z,19.40
2018-09-08T16:44:26.537Z,19.50
2018-09-08T16:48:35.038Z,19.50
2018-09-08T16:52:43.358Z,19.40
2018-09-08T16:56:51.685Z,19.40
2018-09-08T17:01:00.098Z,19.40
2018-09-08T17:05:08.527Z,19.40
2018-09-08T17:09:16.823Z,19.40
2018-09-08T17:13:25.145Z,19.30
2018-09-08T17:17:33.514Z,19.20
2018-09-08T17:21:41.820Z,19.20
2018-09-08T17:25:50.114Z,19.10
2018-09-08T17:29:58.417Z,19.10
2018-09-08T17:34:07.020Z,19.00
2018-09-08T17:38:15.298Z,18.90
2018-09-08T17:42:23.590Z,18.90
2018-09-08T17:46:31.947Z,18.90
2018-09-08T17:50:40.275Z,18.80
2018-09-08T17:54:48.591Z,18.90
2018-09-08T17:58:56.912Z,18.80
2018-09-08T18:03:05.299Z,18.80
2018-09-08T18:07:14.903Z,18.80
2018-09-08T18:11:23.272Z,18.70
2018-09-08T18:15:32.637Z,18.70
2018-09-08T18:19:40.966Z,18.70
2018-09-08T18:27:57.312Z,18.50
2018-09-08T18:32:05.746Z,18.60
2018-09-08T18:36:14.065Z,18.50
2018-09-08T18:40:22.438Z,18.50
2018-09-08T18:44:30.772Z,18.30
2018-09-08T18:48:39.077Z,18.30
2018-09-08T18:52:47.371Z,18.30
2018-09-08T18:56:55.685Z,18.20
2018-09-08T19:01:03.988Z,18.20
2018-09-08T19:05:12.304Z,18.20
2018-09-08T19:09:20.656Z,18.10
2018-09-08T19:13:28.960Z,18.20
2018-09-08T19:17:37.283Z,18.10
2018-09-08T19:21:45.570Z,18.10
2018-09-08T19:25:53.956Z,18.10
2018-09-08T19:30:03.068Z,18.10
2018-09-08T19:34:11.391Z,18.10
2018-09-08T19:38:19.738Z,18.00
2018-09-08T19:42:28.281Z,17.90
2018-09-08T19:46:41.818Z,18.00
2018-09-08T19:50:50.172Z,17.90
2018-09-08T19:54:58.729Z,17.90
2018-09-08T19:59:07.073Z,17.80
2018-09-08T20:03:15.498Z,17.70
2018-09-08T20:11:31.908Z,17.60
2018-09-08T20:15:40.260Z,17.60
2018-09-08T20:19:48.586Z,17.50
2018-09-08T20:23:56.978Z,17.50
2018-09-08T20:28:05.301Z,17.50
2018-09-08T20:32:13.637Z,17.40
2018-09-08T20:36:22.073Z,17.40
2018-09-08T20:40:30.420Z,17.30
2018-09-08T20:44:38.740Z,17.30
2018-09-08T20:48:47.054Z,17.20
2018-09-08T20:52:55.425Z,17.10
2018-09-08T20:57:03.770Z,17.00
2018-09-08T21:01:12.086Z,17.00
2018-09-08T21:05:20.428Z,17.10
2018-09-08T21:09:28.771Z,17.00
2018-09-08T21:13:37.187Z,17.00
2018-09-08T21:17:45.582Z,16.90
2018-09-08T21:21:54.041Z,16.90
2018-09-08T21:26:02.418Z,16.90
2018-09-08T21:30:10.776Z,16.90
2018-09-08T21:34:19.118Z,16.90
2018-09-08T21:38:27.494Z,16.90
2018-09-08T21:42:35.842Z,16.90
2018-09-08T21:46:44.234Z,16.90
2018-09-08T21:50:52.557Z,16.90
2018-09-08T21:55:00.887Z,16.80
2018-09-08T21:59:09.252Z,16.80
2018-09-08T22:03:17.589Z,16.80
2018-09-08T22:07:25.995Z,16.80
2018-09-08T22:11:34.383Z,16.80
2018-09-08T22:15:42.778Z,16.80
2018-09-08T22:19:51.145Z,16.80
2018-09-08T22:23:59.466Z,16.70
2018-09-08T22:28:07.794Z,16.70
2018-09-08T22:32:16.138Z,16.60
2018-09-08T22:36:24.829Z,16.60
2018-09-08T22:40:33.194Z,16.50
2018-09-08T22:44:41.538Z,16.40
2018-09-08T22:48:49.897Z,16.50
2018-09-08T22:52:58.255Z,16.40
2018-09-08T22:57:06.617Z,16.40
2018-09-08T23:01:14.956Z,16.40
2018-09-08T23:05:23.343Z,16.30
2018-09-08T23:09:31.663Z,16.30
2018-09-08T23:13:40.035Z,16.30
2018-09-08T23:17:48.379Z,16.30
2018-09-08T23:21:56.727Z,16.30
2018-09-08T23:26:05.078Z,16.30
2018-09-08T23:30:13.419Z,16.20
2018-09-08T23:34:21.860Z,16.20
2018-09-08T23:38:30.221Z,16.20
2018-09-08T23:42:38.645Z,16.20
2018-09-08T23:46:47.017Z,16.20
2018-09-08T23:50:55.330Z,16.10
2018-09-08T23:55:03.725Z,16.10
2018-09-08T23:59:12.087Z,16.10
